Sacanta, Argentina
Current Conditions -  °F | °C
As of 11:00 PM on Wednesday 22 Oct 2014 (Local Time) from SACO Reporting Station
Clear Clear  
Wind Chill: 70°   Ceiling: Unl
Heat Index: 70°   Visibility: 6mi
Dew Point: 50°   Wind: 12mph
Humidity: 49%   Direction: 360°N
Pressure: 30.06"   Gusts: NA
Location:  31.67°S, 63.07°W
Report Text: SACO 230200Z 36010KT CAVOK 21/10 Q1018
Loading
Personal Weather Stations






























Interactive Weather Map
Tropical Storm Tracking
New forecast layout! Learn more

10-Day Weather Forecast

Advertisements
Track Severe Weather on mobile